Página principal
METAR-TAF:

METAR-TAF

Aeroportos :

Koror, Babelthuap Island, Palau

latitude: 07-22N, longitude: 134-32E, altura: 54 m

Observação actual do tempo

O boletim foi feito há 59 minutos, às 17:50 UTC
Vento 3 kt de oeste
Temperatura 26°C
Humidade 94%
Pressão 1009 hPa
Visibilidade: 22.5 km
Nuvens dispersasa uma altura de 1600 ft
Nuvens fragmentadasa uma altura de 30000 ft

METAR: PTRO 271750Z 28003KT 14SM SCT016 BKN300 26/25 A2979

Hora: 03:49 (18:49 UTC)

Previsão

O boletim foi feito há 1 hora e 22 minutos, às 17:27 UTC
Previsão válida de 27 às 18 UTC a 28 às 18 UTC
Vento 5 kt com direcção variável
Visibilidade: 10 km
Nuvens dispersasa uma altura de 1600 ft
Nuvens fragmentadasa uma altura de 12000 ft
aguaceiros nas vizinhanças
Temporariamente
de 27 às 18 UTC a 27 às 22 UTC
Visibilidade: 6.4 km
Nuvens fragmentadasa uma altura de 1600 ft
aguaceiros de chuva

TAF: PTRO 271727Z 2718/2818 VRB05KT P6SM VCSH SCT016 BKN120 TEMPO 2718/2722 4SM SHRA BKN016

Observações e previsões do tempo de mais de 4000 aeroportos (mensagens METAR e TAF).

As estações disponíveis são os pontos amarelos e vermelhos sobre o mapa.

Mova o rato sobre o mapa para ver o nome da estação.

Depois clique no ponto para visualizar as observações e previsões meteorológicas.

Para alterar o mapa : clique nos botões verdes com uma cruz preta para aumentar o zoom; no botão verde com uma pitada de zoom; ou nas setas verdes para mapas adjacentes.


METAR-TAF: